createdAt,value
2022-08-25T00:00:23.021Z,3.33
2022-08-25T00:02:56.098Z,3.83
2022-08-25T00:05:29.040Z,3.97
2022-08-25T00:07:59.082Z,3.60
2022-08-25T00:10:30.736Z,3.60
2022-08-25T00:12:58.923Z,3.90
2022-08-25T00:15:31.309Z,3.47
2022-08-25T00:18:00.988Z,3.90
2022-08-25T00:20:34.423Z,3.67
2022-08-25T00:23:03.917Z,3.53
2022-08-25T00:25:35.728Z,3.50
2022-08-25T00:28:08.379Z,3.60
2022-08-25T00:30:39.331Z,4.03
2022-08-25T00:33:07.506Z,4.17
2022-08-25T00:35:38.186Z,4.07
2022-08-25T00:38:07.616Z,3.40
2022-08-25T00:40:36.569Z,3.50
2022-08-25T00:43:06.399Z,3.67
2022-08-25T00:45:35.316Z,3.77
2022-08-25T00:48:11.476Z,3.70
2022-08-25T00:50:39.551Z,3.80
2022-08-25T00:53:12.448Z,4.17
2022-08-25T00:55:42.173Z,3.80
2022-08-25T00:58:19.196Z,4.07
2022-08-25T01:00:50.573Z,3.80
2022-08-25T01:03:20.789Z,3.60
2022-08-25T01:05:52.580Z,4.40
2022-08-25T01:08:29.142Z,3.93
2022-08-25T01:10:59.427Z,3.53
2022-08-25T01:13:33.191Z,3.60
2022-08-25T01:16:01.380Z,4.00
2022-08-25T01:18:30.040Z,3.77
2022-08-25T01:21:00.783Z,3.97
2022-08-25T01:23:32.629Z,3.57
2022-08-25T01:26:05.638Z,3.57
2022-08-25T01:28:37.556Z,3.90
2022-08-25T01:31:24.076Z,3.77
2022-08-25T01:33:52.704Z,3.53
2022-08-25T01:36:23.154Z,3.93
2022-08-25T01:38:52.318Z,4.13
2022-08-25T01:41:31.466Z,4.33
2022-08-25T01:43:59.506Z,4.40
2022-08-25T01:46:28.904Z,3.67
2022-08-25T01:48:56.937Z,4.30
2022-08-25T01:51:34.149Z,4.00
2022-08-25T01:54:02.299Z,4.33
2022-08-25T01:56:31.496Z,4.40
2022-08-25T01:58:59.669Z,4.13
2022-08-25T02:01:30.583Z,3.93
2022-08-25T02:03:59.555Z,3.60
2022-08-25T02:06:34.015Z,4.13
2022-08-25T02:09:07.048Z,3.83
2022-08-25T02:11:38.817Z,4.10
2022-08-25T02:14:08.043Z,4.50
2022-08-25T02:16:41.443Z,4.23
2022-08-25T02:19:12.425Z,3.70
2022-08-25T02:21:45.093Z,4.23
2022-08-25T02:24:13.860Z,3.97
2022-08-25T02:26:45.143Z,4.40
2022-08-25T02:29:13.347Z,4.13
2022-08-25T02:31:45.594Z,3.80
2022-08-25T02:34:15.198Z,4.47
2022-08-25T02:36:47.244Z,4.53
2022-08-25T02:39:15.404Z,4.23
2022-08-25T02:41:43.643Z,4.17
2022-08-25T02:44:14.927Z,4.20
2022-08-25T02:46:44.011Z,4.73
2022-08-25T02:49:14.946Z,4.73
2022-08-25T02:51:44.370Z,4.40
2022-08-25T02:54:16.141Z,4.47
2022-08-25T02:56:44.384Z,4.43
2022-08-25T02:59:15.148Z,4.83
2022-08-25T03:01:43.298Z,4.20
2022-08-25T03:04:15.606Z,4.43
2022-08-25T03:06:45.180Z,4.90
2022-08-25T03:09:16.394Z,4.70
2022-08-25T03:11:44.487Z,4.37
2022-08-25T03:14:12.533Z,5.00
2022-08-25T03:16:42.728Z,4.50
2022-08-25T03:19:14.689Z,4.20
2022-08-25T03:21:45.351Z,3.93
2022-08-25T03:24:13.748Z,4.63
2022-08-25T03:26:56.151Z,4.53
2022-08-25T03:29:27.570Z,4.53
2022-08-25T03:31:58.188Z,4.47
2022-08-25T03:34:31.596Z,4.43
2022-08-25T03:37:01.871Z,4.63
2022-08-25T03:39:33.049Z,4.60
2022-08-25T03:42:03.601Z,5.00
2022-08-25T03:44:34.778Z,4.50
2022-08-25T03:47:02.824Z,4.57
2022-08-25T03:49:34.021Z,4.27
2022-08-25T03:52:04.528Z,4.13
2022-08-25T03:54:32.743Z,4.90
2022-08-25T03:57:01.131Z,5.20
2022-08-25T03:59:32.332Z,4.83
2022-08-25T04:02:00.411Z,5.10
2022-08-25T04:04:28.807Z,4.77
2022-08-25T04:06:57.197Z,5.00
2022-08-25T04:09:26.784Z,5.20
2022-08-25T04:11:57.780Z,4.90
2022-08-25T04:14:25.980Z,5.00
2022-08-25T04:16:54.418Z,5.20
2022-08-25T04:19:23.023Z,4.80
2022-08-25T04:21:51.669Z,5.00
2022-08-25T04:24:26.191Z,5.80
2022-08-25T04:26:54.577Z,5.70
2022-08-25T04:29:24.512Z,4.90
2022-08-25T04:31:53.971Z,5.50
2022-08-25T04:34:29.682Z,5.67
2022-08-25T04:37:00.405Z,5.47
2022-08-25T04:39:30.318Z,5.40
2022-08-25T04:42:00.551Z,5.07
2022-08-25T04:44:30.503Z,5.33
2022-08-25T04:47:01.995Z,5.50
2022-08-25T04:49:30.376Z,5.00
2022-08-25T04:52:01.540Z,5.00
2022-08-25T04:54:36.032Z,5.73
2022-08-25T04:57:06.810Z,5.80
2022-08-25T04:59:36.915Z,5.73
2022-08-25T05:02:06.582Z,5.57
2022-08-25T05:04:36.640Z,5.77
2022-08-25T05:07:06.146Z,5.37
2022-08-25T05:09:36.530Z,6.03
2022-08-25T05:12:05.975Z,5.40
2022-08-25T05:14:34.755Z,5.60
2022-08-25T05:17:06.892Z,6.33
2022-08-25T05:19:36.077Z,5.93
2022-08-25T05:22:11.034Z,5.80
2022-08-25T05:24:40.971Z,6.30
2022-08-25T05:27:11.425Z,6.43
2022-08-25T05:29:39.697Z,6.07
2022-08-25T05:32:08.081Z,6.57
2022-08-25T05:34:37.332Z,6.80
2022-08-25T05:37:07.383Z,6.67
2022-08-25T05:39:39.811Z,6.23
2022-08-25T05:42:08.322Z,6.60
2022-08-25T05:44:38.879Z,6.50
2022-08-25T05:47:07.455Z,6.90
2022-08-25T05:49:35.558Z,5.87
2022-08-25T05:52:03.808Z,5.90
2022-08-25T05:54:33.620Z,7.07
2022-08-25T05:57:06.860Z,6.30
2022-08-25T05:59:34.983Z,6.93
2022-08-25T06:02:20.760Z,7.07
2022-08-25T06:04:48.957Z,6.70
2022-08-25T06:07:17.225Z,6.23
2022-08-25T06:09:46.415Z,6.73
2022-08-25T06:12:19.073Z,7.30
2022-08-25T06:14:48.433Z,7.73
2022-08-25T06:17:19.380Z,8.40
2022-08-25T06:19:47.440Z,8.50
2022-08-25T06:22:22.959Z,8.03
2022-08-25T06:24:51.014Z,8.10
2022-08-25T06:27:20.507Z,8.53
2022-08-25T06:29:48.616Z,9.90
2022-08-25T06:32:21.838Z,10.80
2022-08-25T06:34:49.928Z,10.47
2022-08-25T06:37:20.363Z,9.97
2022-08-25T06:39:51.542Z,10.83
2022-08-25T06:42:24.138Z,9.53
2022-08-25T06:44:52.215Z,11.27
2022-08-25T06:47:21.002Z,11.47
2022-08-25T06:49:49.273Z,12.67
2022-08-25T06:52:17.595Z,12.13
2022-08-25T06:54:49.152Z,13.67
2022-08-25T06:57:17.584Z,14.63
2022-08-25T06:59:54.594Z,15.93
2022-08-25T07:02:23.849Z,14.80
2022-08-25T07:04:55.095Z,13.27
2022-08-25T07:07:23.270Z,15.67
2022-08-25T07:09:51.408Z,16.93
2022-08-25T07:12:19.631Z,16.57
2022-08-25T07:15:03.522Z,17.13
2022-08-25T07:17:37.328Z,15.90
2022-08-25T07:20:08.173Z,16.90
2022-08-25T07:22:36.331Z,17.17
2022-08-25T07:25:04.641Z,16.10
2022-08-25T07:27:32.760Z,16.20
2022-08-25T07:30:04.962Z,16.27
2022-08-25T07:32:33.058Z,15.40
2022-08-25T07:35:19.071Z,15.83
2022-08-25T07:37:52.599Z,15.03
2022-08-25T07:40:42.741Z,14.30
2022-08-25T07:43:32.714Z,13.97
2022-08-25T07:46:15.599Z,15.40
2022-08-25T07:48:59.479Z,15.50
2022-08-25T07:51:44.043Z,15.17
2022-08-25T08:00:39.357Z,18.50
2022-08-25T08:05:03.353Z,17.93
2022-08-25T08:07:42.162Z,28.43
2022-08-25T08:11:04.671Z,24.53
2022-08-25T08:13:46.624Z,12.33
2022-08-25T08:16:20.501Z,11.17
2022-08-25T08:18:50.687Z,13.70
2022-08-25T08:21:23.566Z,11.93
2022-08-25T08:23:58.706Z,11.50
2022-08-25T08:26:48.150Z,11.70
2022-08-25T08:29:16.541Z,11.37
2022-08-25T08:31:48.441Z,11.23
2022-08-25T08:34:18.572Z,10.27
2022-08-25T08:36:46.623Z,12.83
2022-08-25T08:39:14.764Z,12.87
2022-08-25T08:42:16.791Z,12.57
2022-08-25T08:45:04.557Z,12.40
2022-08-25T08:47:47.470Z,12.40
2022-08-25T08:50:33.219Z,11.83
2022-08-25T08:53:11.515Z,12.10
2022-08-25T08:55:43.833Z,11.73
2022-08-25T08:58:20.920Z,12.27
2022-08-25T09:00:59.772Z,12.17
2022-08-25T09:03:41.001Z,11.53
2022-08-25T09:06:13.774Z,12.13
2022-08-25T09:08:46.128Z,11.47
2022-08-25T09:11:25.072Z,11.80
2022-08-25T09:14:10.635Z,11.10
2022-08-25T09:16:58.309Z,13.40
2022-08-25T09:19:53.569Z,14.20
2022-08-25T09:22:38.260Z,14.57
2022-08-25T09:25:21.935Z,12.87
2022-08-25T09:28:08.895Z,12.80
2022-08-25T09:30:47.399Z,12.90
2022-08-25T09:33:25.838Z,13.70
2022-08-25T09:35:57.901Z,15.63
2022-08-25T09:38:28.976Z,17.50
2022-08-25T09:41:03.644Z,17.63
2022-08-25T09:43:34.310Z,18.03
2022-08-25T09:46:10.384Z,17.20
2022-08-25T09:48:48.458Z,18.70
2022-08-25T09:51:37.959Z,19.63
2022-08-25T09:54:25.673Z,20.17
2022-08-25T09:57:29.636Z,19.43
2022-08-25T09:59:58.744Z,18.47
2022-08-25T10:02:30.461Z,16.60
2022-08-25T10:05:00.876Z,16.40
2022-08-25T10:07:33.526Z,15.97
2022-08-25T10:10:07.924Z,14.73
2022-08-25T10:12:42.753Z,14.50
2022-08-25T10:15:30.430Z,12.00
2022-08-25T10:18:25.708Z,10.63
2022-08-25T10:21:12.606Z,9.07
2022-08-25T10:23:52.515Z,9.27
2022-08-25T10:26:35.480Z,9.27
2022-08-25T10:29:30.059Z,7.10
2022-08-25T10:32:12.353Z,6.40
2022-08-25T10:34:51.834Z,6.67
2022-08-25T10:37:35.919Z,6.43
2022-08-25T10:40:19.091Z,5.57
2022-08-25T10:43:02.337Z,5.10
2022-08-25T10:45:44.672Z,4.90
2022-08-25T10:48:50.632Z,4.90
2022-08-25T10:51:35.971Z,4.97
2022-08-25T10:54:16.512Z,4.50
2022-08-25T10:57:01.787Z,4.50
2022-08-25T10:59:53.744Z,4.20
2022-08-25T11:02:58.909Z,4.73
2022-08-25T11:05:31.824Z,4.73
2022-08-25T11:08:07.848Z,4.40
2022-08-25T11:10:43.646Z,4.57
2022-08-25T11:13:20.367Z,4.50
2022-08-25T11:16:21.807Z,4.50
2022-08-25T11:19:00.541Z,4.30
2022-08-25T11:21:43.712Z,4.77
2022-08-25T11:24:27.466Z,4.27
2022-08-25T11:26:58.697Z,4.63
2022-08-25T11:29:36.733Z,4.33
2022-08-25T11:32:10.072Z,4.53
2022-08-25T11:34:43.426Z,4.80
2022-08-25T11:37:23.339Z,4.37
2022-08-25T11:40:23.098Z,4.57
2022-08-25T11:43:08.293Z,4.17
2022-08-25T11:45:55.059Z,4.47
2022-08-25T11:48:42.407Z,4.87
2022-08-25T11:51:13.465Z,4.87
2022-08-25T11:53:45.631Z,5.00
2022-08-25T11:56:35.959Z,4.80
2022-08-25T11:59:05.263Z,4.23
2022-08-25T12:02:06.448Z,4.20
2022-08-25T12:04:46.759Z,4.37
2022-08-25T12:07:27.010Z,3.97
2022-08-25T12:10:27.398Z,4.13
2022-08-25T12:13:31.339Z,4.10
2022-08-25T12:16:02.521Z,4.40
2022-08-25T12:18:46.083Z,4.07
2022-08-25T12:21:35.985Z,3.97
2022-08-25T12:24:22.221Z,4.07
2022-08-25T12:27:02.409Z,3.83
2022-08-25T12:29:44.042Z,3.90
2022-08-25T12:32:48.556Z,3.90
2022-08-25T12:35:40.819Z,3.80
2022-08-25T12:38:19.997Z,3.40
2022-08-25T12:41:01.548Z,3.33
2022-08-25T12:43:33.280Z,3.50
2022-08-25T12:46:34.409Z,3.47
2022-08-25T12:49:09.704Z,3.20
2022-08-25T12:52:01.084Z,3.60
2022-08-25T12:54:47.997Z,3.20
2022-08-25T12:57:30.104Z,3.30
2022-08-25T13:00:05.533Z,3.40
2022-08-25T13:03:05.120Z,3.47
2022-08-25T13:05:54.864Z,3.47
2022-08-25T13:09:00.345Z,3.37
2022-08-25T13:11:35.960Z,3.50
2022-08-25T13:14:13.816Z,3.33
2022-08-25T13:16:54.472Z,3.17
2022-08-25T13:19:22.990Z,3.30
2022-08-25T13:21:51.627Z,3.13
2022-08-25T13:24:30.792Z,3.03
2022-08-25T13:27:22.906Z,3.00
2022-08-25T13:29:56.409Z,2.90
2022-08-25T13:32:32.287Z,3.10
2022-08-25T13:35:15.578Z,2.97
2022-08-25T13:37:44.934Z,3.37
2022-08-25T13:40:17.593Z,3.20
2022-08-25T13:42:55.531Z,3.23
2022-08-25T13:45:26.088Z,3.13
2022-08-25T13:47:55.839Z,3.00
2022-08-25T13:50:34.429Z,3.20
2022-08-25T13:53:06.460Z,3.17
2022-08-25T13:55:51.720Z,3.13
2022-08-25T13:58:39.458Z,3.47
2022-08-25T14:01:35.680Z,2.90
2022-08-25T14:04:32.002Z,2.60
2022-08-25T14:07:19.418Z,2.73
2022-08-25T14:09:51.627Z,2.90
2022-08-25T14:12:40.175Z,2.90
2022-08-25T14:15:14.191Z,2.87
2022-08-25T14:17:48.355Z,3.03
2022-08-25T14:20:28.019Z,2.80
2022-08-25T14:23:03.079Z,2.73
2022-08-25T14:25:34.897Z,3.10
2022-08-25T14:28:25.512Z,3.10
2022-08-25T14:31:05.151Z,3.03
2022-08-25T14:33:44.524Z,3.10
2022-08-25T14:36:23.891Z,3.23
2022-08-25T14:38:57.557Z,3.27
2022-08-25T14:41:30.558Z,2.83
2022-08-25T14:44:06.609Z,3.17
2022-08-25T14:46:41.418Z,3.10
2022-08-25T14:49:24.872Z,3.10
2022-08-25T14:51:59.912Z,2.83
2022-08-25T14:54:38.045Z,3.10
2022-08-25T14:57:34.178Z,3.03
2022-08-25T15:00:11.157Z,3.43
2022-08-25T15:02:52.222Z,3.07
2022-08-25T15:05:32.076Z,3.37
2022-08-25T15:08:19.790Z,3.20
2022-08-25T15:10:54.643Z,3.23
2022-08-25T15:13:24.727Z,2.93
2022-08-25T15:15:59.318Z,3.30
2022-08-25T15:18:40.408Z,3.20
2022-08-25T15:21:37.277Z,3.30
2022-08-25T15:27:12.843Z,3.00
2022-08-25T15:29:45.977Z,2.90
2022-08-25T15:32:32.010Z,3.10
2022-08-25T15:35:30.153Z,3.50
2022-08-25T15:37:59.198Z,3.20
2022-08-25T15:40:59.965Z,3.10
2022-08-25T15:43:34.306Z,3.40
2022-08-25T15:46:38.041Z,2.60
2022-08-25T15:49:20.939Z,3.10
2022-08-25T15:52:22.336Z,2.93
2022-08-25T15:55:25.244Z,3.00
2022-08-25T15:58:02.344Z,3.33
2022-08-25T16:00:33.533Z,3.23
2022-08-25T16:03:11.598Z,3.27
2022-08-25T16:05:58.234Z,3.20
2022-08-25T16:08:40.149Z,3.37
2022-08-25T16:11:34.661Z,3.30
2022-08-25T16:14:41.941Z,3.60
2022-08-25T16:21:32.553Z,3.70
2022-08-25T16:23:59.301Z,3.30
2022-08-25T16:26:32.485Z,3.20
2022-08-25T16:36:06.241Z,3.83
2022-08-25T16:38:38.815Z,3.67
2022-08-25T16:41:39.803Z,3.50
2022-08-25T16:44:53.803Z,3.40
2022-08-25T16:50:38.472Z,3.40
2022-08-25T16:53:28.067Z,3.37
2022-08-25T16:56:27.220Z,3.53
2022-08-25T16:59:12.396Z,3.20
2022-08-25T17:06:17.111Z,3.63
2022-08-25T17:09:24.119Z,3.90
2022-08-25T17:12:07.795Z,3.60
2022-08-25T17:14:55.603Z,3.87
2022-08-25T17:17:38.393Z,3.50
2022-08-25T17:20:31.631Z,3.63
2022-08-25T17:22:59.721Z,3.80
2022-08-25T17:25:30.828Z,3.80
2022-08-25T17:28:00.343Z,4.37
2022-08-25T17:30:32.298Z,3.50
2022-08-25T17:33:01.908Z,3.60
2022-08-25T17:35:29.976Z,3.57
2022-08-25T17:37:58.359Z,3.60
2022-08-25T17:40:26.695Z,3.90
2022-08-25T17:42:55.182Z,3.53
2022-08-25T17:45:25.569Z,3.60
2022-08-25T17:47:54.186Z,3.57
2022-08-25T17:50:22.492Z,3.80
2022-08-25T17:52:50.741Z,3.40
2022-08-25T17:55:23.311Z,3.77
2022-08-25T17:57:52.304Z,3.57
2022-08-25T18:00:25.022Z,3.67
2022-08-25T18:02:53.101Z,3.50
2022-08-25T18:05:21.371Z,3.80
2022-08-25T18:07:49.619Z,3.97
2022-08-25T18:10:18.739Z,3.80
2022-08-25T18:12:47.503Z,3.73
2022-08-25T18:15:19.488Z,3.40
2022-08-25T18:17:51.479Z,3.77
2022-08-25T18:20:23.319Z,4.00
2022-08-25T18:22:51.593Z,3.40
2022-08-25T18:25:26.797Z,4.27
2022-08-25T18:27:55.376Z,3.57
2022-08-25T18:30:24.469Z,3.63
2022-08-25T18:32:58.825Z,3.73
2022-08-25T18:35:27.484Z,3.77
2022-08-25T18:38:12.991Z,3.70
2022-08-25T18:40:41.135Z,4.87
2022-08-25T18:43:15.801Z,37.37
2022-08-25T18:45:47.813Z,4.40
2022-08-25T18:48:23.732Z,3.90
2022-08-25T18:51:03.052Z,3.63
2022-08-25T18:53:37.491Z,3.70
2022-08-25T18:56:18.090Z,3.70
2022-08-25T18:58:46.271Z,3.80
2022-08-25T19:01:15.897Z,3.87
2022-08-25T19:03:51.618Z,4.03
2022-08-25T19:06:20.829Z,4.07
2022-08-25T19:08:52.217Z,3.93
2022-08-25T19:11:22.270Z,4.00
2022-08-25T19:13:53.457Z,3.70
2022-08-25T19:16:36.332Z,3.90
2022-08-25T19:19:08.164Z,3.70
2022-08-25T19:21:40.527Z,3.93
2022-08-25T19:24:09.454Z,3.70
2022-08-25T19:26:38.134Z,3.80
2022-08-25T19:29:09.226Z,3.77
2022-08-25T19:31:40.115Z,3.60
2022-08-25T19:34:11.781Z,3.90
2022-08-25T19:36:40.082Z,3.80
2022-08-25T19:39:13.026Z,3.40
2022-08-25T19:41:42.162Z,3.60
2022-08-25T19:44:14.313Z,3.43
2022-08-25T19:46:44.417Z,3.70
2022-08-25T19:49:16.265Z,3.60
2022-08-25T19:51:50.537Z,3.80
2022-08-25T19:54:27.570Z,3.97
2022-08-25T19:56:55.882Z,3.77
2022-08-25T19:59:25.410Z,3.87
2022-08-25T20:01:54.623Z,3.90
2022-08-25T20:04:25.076Z,3.70
2022-08-25T20:06:55.592Z,3.60
2022-08-25T20:09:39.207Z,3.80
2022-08-25T20:12:11.786Z,3.63
2022-08-25T20:14:40.392Z,3.73
2022-08-25T20:17:23.334Z,3.63
2022-08-25T20:19:55.968Z,3.37
2022-08-25T20:22:27.382Z,3.43
2022-08-25T20:24:58.029Z,3.60
2022-08-25T20:27:33.455Z,3.70
2022-08-25T20:30:02.870Z,3.83
2022-08-25T20:32:35.649Z,3.90
2022-08-25T20:35:09.563Z,3.77
2022-08-25T20:37:42.261Z,4.10
2022-08-25T20:40:13.512Z,4.07
2022-08-25T20:42:44.605Z,3.80
2022-08-25T20:45:14.024Z,4.27
2022-08-25T20:47:47.221Z,3.90
2022-08-25T20:50:16.885Z,4.17
2022-08-25T20:52:44.993Z,3.70
2022-08-25T20:55:13.812Z,3.73
2022-08-25T20:57:41.864Z,3.93
2022-08-25T21:00:13.332Z,3.97
2022-08-25T21:02:41.568Z,3.87
2022-08-25T21:05:10.017Z,3.83
2022-08-25T21:07:42.843Z,3.87
2022-08-25T21:10:14.187Z,4.10
2022-08-25T21:12:43.186Z,4.40
2022-08-25T21:15:12.742Z,4.20
2022-08-25T21:17:43.880Z,4.00
2022-08-25T21:20:12.348Z,4.00
2022-08-25T21:22:44.546Z,3.77
2022-08-25T21:25:13.441Z,4.33
2022-08-25T21:27:43.435Z,4.07
2022-08-25T21:30:13.020Z,4.00
2022-08-25T21:32:41.083Z,3.97
2022-08-25T21:35:22.573Z,4.17
2022-08-25T21:37:55.121Z,4.20
2022-08-25T21:40:24.784Z,4.27
2022-08-25T21:42:53.460Z,4.67
2022-08-25T21:45:22.115Z,4.40
2022-08-25T21:47:51.770Z,3.77
2022-08-25T21:50:23.677Z,3.87
2022-08-25T21:52:54.945Z,4.50
2022-08-25T21:55:25.632Z,4.30
2022-08-25T21:57:54.745Z,4.30
2022-08-25T22:00:23.533Z,4.20
2022-08-25T22:02:52.080Z,4.37
2022-08-25T22:05:20.385Z,4.03
2022-08-25T22:07:48.489Z,4.23
2022-08-25T22:10:18.828Z,4.70
2022-08-25T22:12:50.304Z,4.33
2022-08-25T22:15:18.691Z,4.50
2022-08-25T22:17:51.237Z,4.53
2022-08-25T22:20:19.968Z,5.40
2022-08-25T22:22:50.424Z,4.60
2022-08-25T22:25:20.073Z,5.20
2022-08-25T22:27:48.443Z,5.27
2022-08-25T22:30:24.717Z,5.20
2022-08-25T22:32:55.648Z,6.10
2022-08-25T22:35:23.663Z,5.60
2022-08-25T22:37:51.931Z,5.53
2022-08-25T22:40:22.306Z,5.80
2022-08-25T22:42:51.245Z,6.60
2022-08-25T22:45:19.486Z,5.53
2022-08-25T22:47:48.483Z,5.90
2022-08-25T22:50:17.420Z,5.43
2022-08-25T22:52:46.865Z,6.13
2022-08-25T22:55:16.460Z,6.00
2022-08-25T22:57:48.661Z,5.67
2022-08-25T23:00:17.791Z,5.80
2022-08-25T23:02:46.797Z,5.93
2022-08-25T23:05:16.678Z,5.80
2022-08-25T23:07:47.245Z,6.30
2022-08-25T23:10:15.472Z,6.27
2022-08-25T23:12:44.732Z,5.90
2022-08-25T23:15:17.311Z,5.63
2022-08-25T23:17:45.359Z,6.20
2022-08-25T23:20:30.783Z,6.33
2022-08-25T23:22:58.865Z,6.30
2022-08-25T23:25:29.797Z,5.87
2022-08-25T23:27:58.482Z,6.13
2022-08-25T23:30:35.463Z,6.43
2022-08-25T23:33:07.189Z,6.37
2022-08-25T23:35:38.126Z,6.13
2022-08-25T23:38:07.397Z,6.10
2022-08-25T23:40:38.291Z,6.37
2022-08-25T23:43:06.675Z,6.03
2022-08-25T23:45:36.290Z,6.27
2022-08-25T23:48:05.607Z,6.27
2022-08-25T23:50:40.990Z,6.80
2022-08-25T23:53:09.771Z,6.47
2022-08-25T23:55:38.013Z,5.63
2022-08-25T23:58:21.582Z,6.00
